Time;durP1;ratioP1;P1;durP2;ratioP2;P2;SDS_P1;SDS_P2;PMS_P1;PMS_P2;Temp;Humidity;BMP_temperature;BMP_pressure;BME280_temperature;BME280_humidity;BME280_pressure;Samples;Min_cycle;Max_cycle;Signal;HPM_P1;HPM_P2
2022/03/26 00:01:57;;;;;;;35.08;14.85;;;;;;;;;;10393944;28;20042;-69
2022/03/26 00:06:59;;;;;;;37.15;14.98;;;;;;;;;;10393542;28;20060;-68
2022/03/26 00:12:00;;;;;;;37.53;14.68;;;;;;;;;;10396292;28;20045;-70
2022/03/26 00:17:02;;;;;;;33.60;13.95;;;;;;;;;;10395074;28;20099;-69
2022/03/26 00:22:03;;;;;;;35.47;14.55;;;;;;;;;;10389644;28;20119;-69
2022/03/26 00:27:05;;;;;;;35.22;14.82;;;;;;;;;;10392982;28;20049;-69
2022/03/26 00:32:07;;;;;;;40.33;15.45;;;;;;;;;;10389513;28;20076;-69
2022/03/26 00:37:08;;;;;;;31.45;15.05;;;;;;;;;;10393482;28;20179;-68
2022/03/26 00:42:10;;;;;;;37.95;16.58;;;;;;;;;;10386182;28;20829;-69
2022/03/26 00:47:11;;;;;;;38.35;15.10;;;;;;;;;;10388173;28;20049;-69
2022/03/26 00:52:13;;;;;;;36.17;15.60;;;;;;;;;;10393611;28;20234;-69
2022/03/26 00:57:16;;;;;;;36.13;14.95;;;;;;;;;;10392983;28;20424;-69
2022/03/26 01:02:18;;;;;;;35.25;15.73;;;;;;;;;;10391379;28;20049;-69
2022/03/26 01:07:19;;;;;;;33.60;15.35;;;;;;;;;;10395414;28;20621;-69
2022/03/26 01:12:21;;;;;;;41.22;14.82;;;;;;;;;;10397555;28;20046;-69
2022/03/26 01:17:23;;;;;;;38.78;15.68;;;;;;;;;;10390535;28;20053;-69
2022/03/26 01:22:24;;;;;;;40.03;16.00;;;;;;;;;;10389472;28;20057;-69
2022/03/26 01:27:25;;;;;;;35.33;14.88;;;;;;;;;;10390451;28;20531;-69
2022/03/26 01:32:27;;;;;;;34.15;14.73;;;;;;;;;;10389128;28;20049;-69
2022/03/26 01:37:28;;;;;;;38.00;15.20;;;;;;;;;;10386955;28;20409;-68
2022/03/26 01:42:30;;;;;;;46.47;17.15;;;;;;;;;;10401664;28;20481;-69
2022/03/26 01:47:31;;;;;;;44.80;17.45;;;;;;;;;;10402416;28;20077;-68
2022/03/26 01:52:33;;;;;;;40.20;16.05;;;;;;;;;;10401685;28;20046;-69
2022/03/26 01:57:35;;;;;;;44.55;17.00;;;;;;;;;;10402483;28;20053;-68
2022/03/26 02:02:37;;;;;;;43.40;17.40;;;;;;;;;;10399605;28;20057;-69
2022/03/26 02:07:39;;;;;;;40.17;16.27;;;;;;;;;;10399656;28;20312;-68
2022/03/26 02:12:41;;;;;;;50.88;17.98;;;;;;;;;;10399178;28;20050;-69
2022/03/26 02:17:43;;;;;;;48.75;17.88;;;;;;;;;;10399835;28;20076;-69
2022/03/26 02:22:44;;;;;;;46.83;19.17;;;;;;;;;;10387564;28;20046;-69
2022/03/26 02:27:46;;;;;;;53.70;19.38;;;;;;;;;;10392279;28;20424;-68
2022/03/26 02:32:47;;;;;;;58.15;21.13;;;;;;;;;;10404925;28;20201;-66
2022/03/26 02:37:49;;;;;;;63.88;21.92;;;;;;;;;;10406730;28;20045;-67
2022/03/26 02:42:50;;;;;;;51.38;20.92;;;;;;;;;;10407820;28;20057;-68
2022/03/26 02:47:52;;;;;;;48.15;19.50;;;;;;;;;;10406888;28;20065;-68
2022/03/26 02:52:53;;;;;;;61.70;21.17;;;;;;;;;;10406462;28;20052;-68
2022/03/26 02:57:54;;;;;;;56.72;21.15;;;;;;;;;;10407210;28;20049;-68
2022/03/26 03:02:56;;;;;;;57.72;21.63;;;;;;;;;;10406558;28;20052;-69
2022/03/26 03:07:57;;;;;;;64.20;22.20;;;;;;;;;;10407032;28;20507;-69
2022/03/26 03:12:59;;;;;;;57.90;21.20;;;;;;;;;;10405567;28;20060;-68
2022/03/26 03:18:02;;;;;;;64.15;22.33;;;;;;;;;;10406584;28;20083;-68
2022/03/26 03:23:05;;;;;;;71.55;24.80;;;;;;;;;;10406063;28;20049;-68
2022/03/26 03:28:06;;;;;;;66.95;21.30;;;;;;;;;;10406072;28;20136;-68
2022/03/26 03:33:07;;;;;;;68.95;25.10;;;;;;;;;;10404186;28;20053;-68
2022/03/26 03:38:09;;;;;;;66.75;26.50;;;;;;;;;;10405783;28;20132;-69
2022/03/26 03:43:10;;;;;;;63.90;23.65;;;;;;;;;;10404862;28;20075;-69
2022/03/26 03:48:12;;;;;;;72.53;25.08;;;;;;;;;;10406755;28;20053;-68
2022/03/26 03:53:15;;;;;;;75.20;25.67;;;;;;;;;;10405027;28;20041;-68
2022/03/26 03:58:16;;;;;;;73.35;26.50;;;;;;;;;;10404318;28;20635;-68
2022/03/26 04:03:18;;;;;;;75.90;27.40;;;;;;;;;;10402464;28;20056;-69
2022/03/26 04:08:20;;;;;;;84.35;27.75;;;;;;;;;;10405042;28;20050;-68
2022/03/26 04:13:21;;;;;;;77.55;28.40;;;;;;;;;;10404595;28;20055;-68
2022/03/26 04:18:23;;;;;;;78.13;28.20;;;;;;;;;;10404719;28;20053;-68
2022/03/26 04:23:25;;;;;;;80.22;29.85;;;;;;;;;;10394237;28;20146;-68
2022/03/26 04:28:26;;;;;;;87.78;31.33;;;;;;;;;;10403855;28;20050;-68
2022/03/26 04:33:27;;;;;;;87.95;29.80;;;;;;;;;;10404375;28;20053;-68
2022/03/26 04:38:29;;;;;;;81.40;30.52;;;;;;;;;;10403978;28;20061;-68
2022/03/26 04:43:31;;;;;;;89.93;31.30;;;;;;;;;;10402949;28;20427;-68
2022/03/26 04:48:32;;;;;;;86.85;29.85;;;;;;;;;;10403224;28;20471;-69
2022/03/26 04:53:34;;;;;;;90.45;31.75;;;;;;;;;;10401302;28;20137;-68
2022/03/26 04:58:35;;;;;;;92.18;32.10;;;;;;;;;;10402958;28;20056;-68
2022/03/26 05:03:37;;;;;;;89.88;32.25;;;;;;;;;;10402148;28;20718;-68
2022/03/26 05:08:38;;;;;;;105.78;34.15;;;;;;;;;;10401886;28;20061;-68
2022/03/26 05:13:39;;;;;;;100.70;33.15;;;;;;;;;;10402271;28;20461;-69
2022/03/26 05:18:41;;;;;;;97.97;33.22;;;;;;;;;;10401852;28;20053;-68
2022/03/26 05:23:42;;;;;;;100.63;34.50;;;;;;;;;;10401314;28;20052;-68
2022/03/26 05:28:44;;;;;;;104.32;35.40;;;;;;;;;;10401596;28;20045;-68
2022/03/26 05:33:45;;;;;;;95.32;34.10;;;;;;;;;;10400406;28;20052;-68
2022/03/26 05:38:46;;;;;;;102.75;33.97;;;;;;;;;;10401276;28;20527;-68
2022/03/26 05:43:48;;;;;;;90.80;34.03;;;;;;;;;;10401091;28;20065;-69
2022/03/26 05:48:49;;;;;;;102.05;35.65;;;;;;;;;;10400763;28;20053;-68
2022/03/26 05:53:51;;;;;;;112.68;37.85;;;;;;;;;;10399354;28;20063;-68
2022/03/26 05:58:52;;;;;;;99.85;34.67;;;;;;;;;;10400690;28;20429;-68
2022/03/26 06:03:54;;;;;;;114.85;37.60;;;;;;;;;;10398004;28;20134;-68
2022/03/26 06:08:55;;;;;;;104.80;37.15;;;;;;;;;;10399066;28;20156;-67
2022/03/26 06:13:57;;;;;;;112.80;37.00;;;;;;;;;;10397333;28;20052;-68
2022/03/26 06:18:59;;;;;;;107.72;38.55;;;;;;;;;;10378852;28;20045;-69
2022/03/26 06:24:02;;;;;;;119.32;37.90;;;;;;;;;;10396463;28;20068;-69
2022/03/26 06:29:04;;;;;;;111.00;38.88;;;;;;;;;;10388555;28;20048;-69
2022/03/26 06:34:06;;;;;;;114.35;39.92;;;;;;;;;;10390064;28;20132;-68
2022/03/26 06:39:07;;;;;;;116.40;38.10;;;;;;;;;;10396213;28;20038;-68
2022/03/26 06:44:09;;;;;;;119.10;40.78;;;;;;;;;;10395136;28;20042;-69
2022/03/26 06:49:10;;;;;;;125.03;42.97;;;;;;;;;;10393388;28;20376;-69
2022/03/26 06:54:12;;;;;;;123.45;41.28;;;;;;;;;;10387439;28;20053;-68
2022/03/26 06:59:13;;;;;;;129.70;42.92;;;;;;;;;;10385380;28;20048;-68
2022/03/26 07:04:15;;;;;;;128.10;42.63;;;;;;;;;;10391938;28;20042;-68
2022/03/26 07:09:16;;;;;;;113.45;41.40;;;;;;;;;;10396179;28;20398;-68
2022/03/26 07:14:18;;;;;;;130.23;42.80;;;;;;;;;;10390809;28;20041;-68
2022/03/26 07:19:19;;;;;;;116.97;38.72;;;;;;;;;;10401055;28;20468;-69
2022/03/26 07:24:20;;;;;;;113.32;40.15;;;;;;;;;;10403027;28;20465;-70
2022/03/26 07:29:22;;;;;;;113.28;40.63;;;;;;;;;;10388121;28;20038;-71
2022/03/26 07:34:23;;;;;;;120.45;40.80;;;;;;;;;;10390160;28;20033;-70
2022/03/26 07:39:25;;;;;;;111.20;43.00;;;;;;;;;;10374923;28;20040;-68
2022/03/26 07:44:26;;;;;;;109.22;40.42;;;;;;;;;;10385713;28;20071;-69
2022/03/26 07:49:28;;;;;;;86.90;37.70;;;;;;;;;;10375954;28;20084;-68
2022/03/26 07:54:29;;;;;;;95.63;38.33;;;;;;;;;;10374017;28;20042;-69
2022/03/26 07:59:31;;;;;;;86.97;38.80;;;;;;;;;;10361643;28;20049;-69
2022/03/26 08:04:35;;;;;;;89.57;38.30;;;;;;;;;;10385762;28;20146;-67
2022/03/26 08:09:36;;;;;;;85.80;38.53;;;;;;;;;;10390424;28;20033;-68
2022/03/26 08:14:37;;;;;;;85.38;36.40;;;;;;;;;;10389482;28;20462;-67
2022/03/26 08:19:39;;;;;;;82.38;35.40;;;;;;;;;;10388873;28;20043;-66
2022/03/26 08:24:40;;;;;;;78.00;33.33;;;;;;;;;;10382636;28;20061;-69
2022/03/26 08:29:42;;;;;;;77.65;34.88;;;;;;;;;;10392862;28;20591;-67
2022/03/26 08:34:44;;;;;;;64.30;29.65;;;;;;;;;;10375811;28;20067;-68
2022/03/26 08:39:45;;;;;;;63.13;29.88;;;;;;;;;;10384695;28;20409;-68
2022/03/26 08:44:47;;;;;;;62.15;28.95;;;;;;;;;;10390367;28;20084;-68
2022/03/26 08:49:48;;;;;;;47.33;22.63;;;;;;;;;;10378714;28;20046;-69
2022/03/26 08:54:50;;;;;;;50.00;23.50;;;;;;;;;;10388344;28;20049;-67
2022/03/26 08:59:52;;;;;;;45.67;21.65;;;;;;;;;;10384431;28;20111;-68
2022/03/26 09:04:53;;;;;;;43.00;22.13;;;;;;;;;;10383785;28;20056;-67
2022/03/26 09:09:55;;;;;;;46.70;21.75;;;;;;;;;;10379214;28;20041;-67
2022/03/26 09:14:56;;;;;;;51.15;24.08;;;;;;;;;;10394748;28;20112;-67
2022/03/26 09:19:57;;;;;;;50.03;25.05;;;;;;;;;;10399658;28;20523;-67
2022/03/26 09:24:59;;;;;;;37.83;19.55;;;;;;;;;;10389007;28;20044;-68
2022/03/26 09:30:01;;;;;;;42.38;20.42;;;;;;;;;;10399574;28;20056;-68
2022/03/26 09:35:08;;;;;;;36.88;19.13;;;;;;;;;;10398944;28;20045;-67
2022/03/26 09:40:11;;;;;;;34.63;17.15;;;;;;;;;;10396607;28;20727;-68
2022/03/26 09:45:13;;;;;;;36.63;16.80;;;;;;;;;;10377413;28;20041;-67
2022/03/26 09:50:15;;;;;;;30.50;16.00;;;;;;;;;;10398141;28;20095;-67
2022/03/26 09:55:17;;;;;;;30.48;15.88;;;;;;;;;;10391008;28;20048;-67
2022/03/26 10:00:19;;;;;;;35.45;16.75;;;;;;;;;;10396172;28;20527;-67
2022/03/26 10:05:20;;;;;;;34.95;16.75;;;;;;;;;;10385509;28;20038;-69
2022/03/26 10:10:23;;;;;;;30.98;16.35;;;;;;;;;;10394442;28;20498;-67
2022/03/26 10:15:24;;;;;;;32.08;15.48;;;;;;;;;;10385677;28;20092;-68
2022/03/26 10:20:26;;;;;;;30.27;14.40;;;;;;;;;;10397595;28;20049;-68
2022/03/26 10:25:27;;;;;;;29.67;15.73;;;;;;;;;;10380107;28;20151;-68
2022/03/26 10:35:53;;;;;;;35.55;15.63;;;;;;;;;;10382483;28;20056;-68
2022/03/26 10:40:59;;;;;;;23.85;13.32;;;;;;;;;;10394075;28;20160;-68
2022/03/26 10:46:01;;;;;;;27.05;11.77;;;;;;;;;;10386943;28;20616;-67
2022/03/26 10:51:07;;;;;;;26.40;12.43;;;;;;;;;;10387851;28;20403;-68
2022/03/26 10:56:10;;;;;;;23.20;11.73;;;;;;;;;;10399918;28;20078;-68
2022/03/26 11:01:12;;;;;;;22.08;10.02;;;;;;;;;;10393994;28;20149;-68
2022/03/26 11:06:16;;;;;;;17.52;9.07;;;;;;;;;;10395365;28;20067;-68
2022/03/26 11:11:18;;;;;;;13.43;6.85;;;;;;;;;;10399759;28;20131;-68
2022/03/26 11:16:25;;;;;;;14.65;6.35;;;;;;;;;;10374716;28;20120;-68
2022/03/26 11:21:29;;;;;;;13.93;6.28;;;;;;;;;;10380004;28;20144;-68
2022/03/26 11:26:51;;;;;;;13.93;6.80;;;;;;;;;;10378417;28;20611;-68
2022/03/26 11:32:11;;;;;;;15.48;7.10;;;;;;;;;;10376058;28;20060;-68
2022/03/26 11:37:14;;;;;;;17.02;6.90;;;;;;;;;;10382537;28;20052;-68
2022/03/26 11:42:21;;;;;;;12.20;6.10;;;;;;;;;;10398818;28;20069;-66
2022/03/26 11:52:51;;;;;;;8.82;3.13;;;;;;;;;;10394103;28;20048;-68
2022/03/26 11:58:11;;;;;;;8.15;3.30;;;;;;;;;;10401364;28;20524;-68
2022/03/26 12:03:20;;;;;;;9.27;3.03;;;;;;;;;;10382914;28;20132;-68
2022/03/26 12:08:34;;;;;;;7.35;2.50;;;;;;;;;;10394613;28;20042;-66
2022/03/26 12:13:35;;;;;;;7.65;2.50;;;;;;;;;;10394119;28;20060;-67
2022/03/26 12:18:37;;;;;;;6.30;3.03;;;;;;;;;;10398029;28;20065;-67
2022/03/26 12:23:46;;;;;;;7.43;2.90;;;;;;;;;;10394465;28;20042;-67
2022/03/26 12:28:48;;;;;;;7.85;2.58;;;;;;;;;;10387838;28;20041;-68
2022/03/26 12:33:52;;;;;;;10.02;3.25;;;;;;;;;;10366821;28;20785;-67
2022/03/26 12:38:54;;;;;;;6.55;2.92;;;;;;;;;;10394512;28;20433;-67
2022/03/26 12:43:59;;;;;;;6.18;2.38;;;;;;;;;;10391342;28;20076;-66
2022/03/26 12:49:07;;;;;;;10.18;2.40;;;;;;;;;;10397830;28;20049;-68
2022/03/26 12:54:08;;;;;;;7.90;2.65;;;;;;;;;;10389093;28;20052;-68
2022/03/26 12:59:13;;;;;;;6.53;2.20;;;;;;;;;;10370771;28;20589;-67
2022/03/26 13:04:15;;;;;;;6.78;2.50;;;;;;;;;;10395620;28;20049;-67
2022/03/26 13:09:16;;;;;;;5.78;2.00;;;;;;;;;;10397533;28;20049;-67
2022/03/26 13:14:20;;;;;;;8.90;2.45;;;;;;;;;;10376776;28;20060;-67
2022/03/26 13:19:31;;;;;;;6.40;2.50;;;;;;;;;;10389440;28;20856;-67
2022/03/26 13:24:32;;;;;;;6.35;2.72;;;;;;;;;;10394079;28;20055;-68
2022/03/26 13:29:35;;;;;;;8.43;3.03;;;;;;;;;;10386206;28;20041;-69
2022/03/26 13:34:41;;;;;;;7.93;2.40;;;;;;;;;;10390854;28;20053;-68
2022/03/26 13:39:43;;;;;;;5.85;1.98;;;;;;;;;;10391729;28;20053;-68
2022/03/26 13:44:48;;;;;;;5.88;2.10;;;;;;;;;;10377015;28;20042;-68
2022/03/26 13:50:03;;;;;;;9.43;2.15;;;;;;;;;;10391524;28;20042;-68
2022/03/26 13:55:25;;;;;;;7.43;2.08;;;;;;;;;;10392808;28;20658;-69
2022/03/26 14:00:27;;;;;;;6.68;1.70;;;;;;;;;;10392732;28;20121;-67
2022/03/26 14:05:31;;;;;;;6.78;2.30;;;;;;;;;;10393945;28;20045;-67
2022/03/26 14:10:33;;;;;;;5.57;1.65;;;;;;;;;;10393044;28;20883;-67
2022/03/26 14:15:34;;;;;;;6.32;1.70;;;;;;;;;;10393424;28;20061;-68
2022/03/26 14:20:36;;;;;;;5.13;1.58;;;;;;;;;;10393329;28;20047;-68
2022/03/26 14:25:39;;;;;;;6.75;1.85;;;;;;;;;;10393835;28;20046;-68
2022/03/26 14:30:40;;;;;;;6.15;2.15;;;;;;;;;;10401198;28;20049;-67
2022/03/26 14:35:47;;;;;;;5.97;1.60;;;;;;;;;;10401074;28;20046;-67
2022/03/26 14:40:49;;;;;;;4.47;2.08;;;;;;;;;;10399261;28;20041;-68
2022/03/26 14:45:52;;;;;;;4.60;1.65;;;;;;;;;;10401188;28;20046;-68
2022/03/26 14:50:54;;;;;;;11.15;2.38;;;;;;;;;;10400129;28;20493;-67
2022/03/26 14:55:55;;;;;;;4.93;2.00;;;;;;;;;;10400932;28;20054;-67
2022/03/26 15:00:56;;;;;;;4.68;1.95;;;;;;;;;;10400279;28;20049;-68
2022/03/26 15:05:58;;;;;;;4.45;1.70;;;;;;;;;;10387767;28;20108;-67
2022/03/26 15:10:59;;;;;;;4.20;1.65;;;;;;;;;;10386530;28;20045;-68
2022/03/26 15:16:01;;;;;;;4.13;2.10;;;;;;;;;;10381505;28;20042;-67
2022/03/26 15:21:03;;;;;;;6.05;2.80;;;;;;;;;;10383029;28;20053;-67
2022/03/26 15:26:05;;;;;;;6.90;2.30;;;;;;;;;;10381626;28;20041;-68
2022/03/26 15:31:06;;;;;;;4.32;2.30;;;;;;;;;;10380751;28;20056;-68
2022/03/26 15:36:07;;;;;;;4.70;2.00;;;;;;;;;;10389923;28;20509;-67
2022/03/26 15:41:09;;;;;;;5.93;1.83;;;;;;;;;;10386740;28;20049;-68
2022/03/26 15:46:10;;;;;;;9.93;2.42;;;;;;;;;;10388597;28;20072;-68
2022/03/26 15:51:12;;;;;;;6.97;2.22;;;;;;;;;;10390636;28;20057;-69
2022/03/26 15:56:14;;;;;;;5.97;2.20;;;;;;;;;;10389667;28;20421;-67
2022/03/26 16:01:15;;;;;;;4.85;1.88;;;;;;;;;;10387492;28;20060;-68
2022/03/26 16:06:17;;;;;;;4.30;1.77;;;;;;;;;;10393360;28;20052;-68
2022/03/26 16:11:18;;;;;;;6.32;1.83;;;;;;;;;;10389596;28;20042;-67
2022/03/26 16:16:20;;;;;;;4.50;2.03;;;;;;;;;;10393735;28;20132;-67
2022/03/26 16:21:21;;;;;;;4.43;1.75;;;;;;;;;;10387416;28;20056;-68
2022/03/26 16:26:23;;;;;;;6.40;2.65;;;;;;;;;;10386435;28;20064;-68
2022/03/26 16:31:24;;;;;;;8.30;2.67;;;;;;;;;;10388080;28;20042;-68
2022/03/26 16:36:26;;;;;;;8.05;2.72;;;;;;;;;;10391253;28;20058;-68
2022/03/26 16:41:27;;;;;;;10.13;3.30;;;;;;;;;;10387665;28;20104;-68
2022/03/26 16:46:29;;;;;;;7.78;2.97;;;;;;;;;;10388382;28;20038;-68
2022/03/26 16:51:30;;;;;;;8.40;3.20;;;;;;;;;;10387500;28;20049;-68
2022/03/26 16:56:35;;;;;;;10.05;3.63;;;;;;;;;;10388321;28;20049;-68
2022/03/26 17:01:36;;;;;;;9.57;3.58;;;;;;;;;;10390285;28;20493;-69
2022/03/26 17:06:38;;;;;;;8.20;3.72;;;;;;;;;;10383503;28;20069;-66
2022/03/26 17:11:39;;;;;;;5.57;3.13;;;;;;;;;;10388382;28;20052;-66
2022/03/26 17:16:41;;;;;;;9.32;3.40;;;;;;;;;;10391001;28;20049;-68
2022/03/26 17:21:42;;;;;;;8.68;3.75;;;;;;;;;;10380287;28;20133;-66
2022/03/26 17:26:44;;;;;;;13.63;3.90;;;;;;;;;;10384819;28;20030;-68
2022/03/26 17:31:45;;;;;;;9.30;3.72;;;;;;;;;;10369136;28;20041;-67
2022/03/26 17:36:47;;;;;;;10.77;4.10;;;;;;;;;;10371367;28;20041;-68
2022/03/26 17:41:48;;;;;;;12.32;4.38;;;;;;;;;;10386431;28;20556;-67
2022/03/26 17:46:49;;;;;;;13.52;5.30;;;;;;;;;;10387380;28;20041;-67
2022/03/26 17:51:51;;;;;;;13.27;5.05;;;;;;;;;;10389596;28;20046;-66
2022/03/26 17:56:52;;;;;;;14.10;5.53;;;;;;;;;;10378573;28;20052;-67
2022/03/26 18:01:53;;;;;;;14.70;5.40;;;;;;;;;;10389016;28;20052;-67
2022/03/26 18:06:55;;;;;;;11.13;5.45;;;;;;;;;;10388668;28;20148;-67
2022/03/26 18:11:57;;;;;;;12.68;3.78;;;;;;;;;;10380870;28;20042;-67
2022/03/26 18:16:59;;;;;;;7.72;3.58;;;;;;;;;;10381520;28;20179;-67
2022/03/26 18:22:00;;;;;;;8.93;3.78;;;;;;;;;;10367917;28;20054;-67
2022/03/26 18:27:02;;;;;;;10.88;3.92;;;;;;;;;;10348838;28;20537;-69
2022/03/26 18:32:03;;;;;;;13.80;4.70;;;;;;;;;;10343546;28;20521;-68
2022/03/26 18:37:05;;;;;;;10.38;4.25;;;;;;;;;;10342923;28;20404;-66
2022/03/26 18:42:07;;;;;;;7.07;3.78;;;;;;;;;;10337378;28;20045;-67
2022/03/26 18:47:08;;;;;;;10.35;4.18;;;;;;;;;;10341076;28;20600;-67
2022/03/26 18:52:10;;;;;;;8.80;3.97;;;;;;;;;;10366153;28;20038;-67
2022/03/26 18:57:12;;;;;;;10.88;5.10;;;;;;;;;;10365150;28;20399;-68
2022/03/26 19:02:17;;;;;;;12.48;5.40;;;;;;;;;;10345267;28;20050;-69
2022/03/26 19:07:19;;;;;;;14.20;5.88;;;;;;;;;;10338128;28;20042;-68
2022/03/26 19:12:21;;;;;;;14.57;5.38;;;;;;;;;;10346487;28;20041;-67
2022/03/26 19:17:23;;;;;;;10.52;4.90;;;;;;;;;;10347007;28;20686;-66
2022/03/26 19:22:25;;;;;;;9.18;4.00;;;;;;;;;;10346957;28;20050;-67
2022/03/26 19:27:26;;;;;;;12.05;4.32;;;;;;;;;;10359877;28;20045;-67
2022/03/26 19:32:28;;;;;;;11.73;4.07;;;;;;;;;;10382568;28;20037;-67
2022/03/26 19:37:29;;;;;;;10.15;3.72;;;;;;;;;;10381606;28;20045;-67
2022/03/26 19:42:30;;;;;;;11.57;3.88;;;;;;;;;;10389639;28;20046;-69
2022/03/26 19:47:32;;;;;;;10.15;3.88;;;;;;;;;;10372540;28;20141;-67
2022/03/26 19:52:33;;;;;;;7.07;3.53;;;;;;;;;;10368655;28;20045;-67
2022/03/26 19:57:35;;;;;;;6.57;3.08;;;;;;;;;;10383880;28;20326;-67
2022/03/26 20:02:37;;;;;;;8.23;3.95;;;;;;;;;;10377032;28;20049;-67
2022/03/26 20:07:39;;;;;;;10.60;3.70;;;;;;;;;;10390818;28;20042;-67
2022/03/26 20:12:40;;;;;;;6.85;3.20;;;;;;;;;;10376647;28;20050;-64
2022/03/26 20:23:01;;;;;;;10.02;3.70;;;;;;;;;;10390285;28;20058;-67
2022/03/26 20:28:04;;;;;;;7.63;3.53;;;;;;;;;;10387015;28;20060;-66
2022/03/26 20:33:05;;;;;;;8.20;3.72;;;;;;;;;;10387186;28;20045;-67
2022/03/26 20:38:07;;;;;;;8.60;4.38;;;;;;;;;;10391436;28;20060;-67
2022/03/26 20:43:08;;;;;;;10.32;4.00;;;;;;;;;;10386993;28;20052;-67
2022/03/26 20:48:10;;;;;;;8.23;3.90;;;;;;;;;;10398038;28;20132;-67
2022/03/26 20:53:17;;;;;;;9.85;3.53;;;;;;;;;;10387996;28;20053;-67
2022/03/26 20:58:19;;;;;;;11.13;3.90;;;;;;;;;;10388124;28;20061;-67
2022/03/26 21:03:20;;;;;;;8.00;3.88;;;;;;;;;;10385525;28;20041;-67
2022/03/26 21:08:22;;;;;;;9.55;4.35;;;;;;;;;;10389380;28;20069;-66
2022/03/26 21:13:23;;;;;;;8.38;3.63;;;;;;;;;;10384664;28;20259;-67
2022/03/26 21:18:24;;;;;;;7.13;3.47;;;;;;;;;;10388563;28;20119;-66
2022/03/26 21:23:26;;;;;;;11.50;3.33;;;;;;;;;;10368109;28;20053;-66
2022/03/26 21:28:27;;;;;;;7.90;3.10;;;;;;;;;;10383644;28;20042;-67
2022/03/26 21:33:29;;;;;;;7.85;3.03;;;;;;;;;;10392169;28;20052;-66
2022/03/26 21:38:30;;;;;;;6.40;2.70;;;;;;;;;;10392724;28;20071;-66
2022/03/26 21:43:31;;;;;;;6.65;2.45;;;;;;;;;;10373083;28;20404;-66
2022/03/26 21:48:34;;;;;;;6.32;2.60;;;;;;;;;;10386665;28;20583;-66
2022/03/26 21:53:35;;;;;;;7.07;2.63;;;;;;;;;;10379803;28;20125;-66
2022/03/26 21:58:37;;;;;;;5.57;2.40;;;;;;;;;;10388538;28;20041;-66
2022/03/26 22:03:38;;;;;;;10.45;2.83;;;;;;;;;;10390260;28;20049;-66
2022/03/26 22:08:40;;;;;;;7.32;3.40;;;;;;;;;;10380611;28;20104;-67
2022/03/26 22:13:42;;;;;;;11.25;3.85;;;;;;;;;;10384579;28;20129;-67
2022/03/26 22:18:44;;;;;;;13.07;3.80;;;;;;;;;;10398366;28;20053;-66
2022/03/26 22:23:45;;;;;;;9.93;4.03;;;;;;;;;;10377337;28;20052;-67
2022/03/26 22:28:48;;;;;;;9.75;4.28;;;;;;;;;;10376609;28;20045;-67
2022/03/26 22:33:49;;;;;;;12.63;3.75;;;;;;;;;;10382678;28;20046;-66
2022/03/26 22:38:50;;;;;;;13.57;4.93;;;;;;;;;;10383346;28;20042;-66
2022/03/26 22:43:52;;;;;;;9.70;4.15;;;;;;;;;;10391886;28;20056;-66
2022/03/26 22:48:53;;;;;;;13.75;4.53;;;;;;;;;;10398580;28;20056;-66
2022/03/26 22:53:55;;;;;;;12.93;4.85;;;;;;;;;;10397277;28;20049;-66
2022/03/26 22:58:57;;;;;;;14.38;5.05;;;;;;;;;;10394396;28;20046;-67
2022/03/26 23:03:58;;;;;;;14.70;5.55;;;;;;;;;;10380367;28;20046;-66
2022/03/26 23:09:00;;;;;;;11.75;5.68;;;;;;;;;;10390721;28;20420;-67
2022/03/26 23:14:01;;;;;;;20.23;8.43;;;;;;;;;;10397987;28;20049;-67
2022/03/26 23:19:02;;;;;;;16.05;7.75;;;;;;;;;;10401146;28;20045;-67
2022/03/26 23:24:04;;;;;;;17.20;7.60;;;;;;;;;;10402594;28;20513;-67
2022/03/26 23:29:06;;;;;;;23.35;9.05;;;;;;;;;;10403664;28;20157;-66
2022/03/26 23:34:07;;;;;;;19.25;7.38;;;;;;;;;;10402760;28;20045;-66
2022/03/26 23:39:09;;;;;;;17.60;7.72;;;;;;;;;;10403727;28;20543;-66
2022/03/26 23:44:10;;;;;;;18.58;7.75;;;;;;;;;;10402975;28;20501;-66
2022/03/26 23:49:12;;;;;;;20.92;8.10;;;;;;;;;;10402419;28;20437;-67
2022/03/26 23:54:13;;;;;;;21.42;8.55;;;;;;;;;;10401862;28;20049;-66
2022/03/26 23:59:15;;;;;;;17.33;8.32;;;;;;;;;;10401489;28;20057;-66
